默认 日期 大小 文件数 浏览量 最新下载 xml
fatale磁力链接相关资源由用户搜索指令自动获取,结果来源于网络,本站不存储任何资料,亦不承担任何责任,请于24小时内删除,搜索到1215个磁力,用时1ms。
    ... Girl.wmv.jpg": 347306, "Dentist Fatale II.wmv.jpg": 240144, "Destructive ... , "Buffalo Ballet.wmv": 12446206, "Dentist Fatale.wmv": 378324, "Latex & Chains.wmv ... -Licking Girl.wmv": 6610097, "Dentist Fatale II.wmv": 10108490, "Destructive Mania ...
创建时间: 2018-11-18 01:44:58 大小:1.28 GB 文件数量:221 热度:12 最近下载:2023-12-26 15:46:05
    {"l'arme fatale 4.avi": 729815040, "Video a voir en DEUXIEME.avi": 3287040, "1 _ Prenez le temps de lire ceci.docx": 36276, "Paypal copie d'ecran - Print screen.JPG": 67399}
创建时间: 2018-11-18 21:32:38 大小:699.24 MB 文件数量:4 热度:12 最近下载:2025-09-17 04:18:11
    {"RARBG.nfo": 32, "Nubiles-Porn - Kenzie Taylor - Femme Fatale.mp4": 295105240}
创建时间: 2018-11-19 04:59:39 大小:281.43 MB 文件数量:2 热度:22 最近下载:2023-12-26 15:46:06
    {"VIDEO_TS": {"VIDEO_TS.BUP": 12288, "VIDEO_TS.IFO": 12288, "VIDEO_TS.VOB": 92160, "VTS_01_0.BUP": 67584, "VTS_01_0.IFO": 67584, "VTS_01_0.VOB": 30720, "VTS_01_1.VOB": 1073739776, "VTS_01_2.VOB": 1073739776, "VTS_01_3.VOB": 1073739776, "VTS_01_4.VOB": ...
创建时间: 2018-11-19 17:19:05 大小:3.22 GB 文件数量:11 热度:15 最近下载:2025-05-13 22:03:01
    {"Erection.mp3": 59172470, "Because series": {"Nikki- Because 1 - Obey.mp3": 40017745, "Nikki- Because 4 - Bliss.mp3": 119768192, "Nikki- Because 5 - Beyond.mp3": 32902063, "Nikki- Because 6 - Shapes.mp3": 105892783, "Nikki- Because 2 - Surrender.mp3": ...
创建时间: 2018-11-19 21:23:19 大小:2.39 GB 文件数量:42 热度:14 最近下载:2023-12-26 15:46:03
    {"Torrent Downloaded From ProstyleX.com.nfo": 38, "Nubiles-Porn - Kenzie Taylor - Femme Fatale.mp4": 534866306}
创建时间: 2018-11-19 23:59:07 大小:510.09 MB 文件数量:2 热度:16 最近下载:2023-12-26 15:46:03
    {"Nice & Naughty.mp3": 57686207, "Nikki-Because 5.mp3": 32902063, "Nikki- Because 1.mp3": 40021824, "Nikki- Because 2.mp3": 132031950, "Nikki- Because 3.mp3": 107515301, "Nikki- Because 4.mp3": 119768192, "Nikki- Because 6.mp3": 105892783, " ...
创建时间: 2018-11-20 03:40:55 大小:588.98 MB 文件数量:8 热度:12 最近下载:2023-12-26 15:46:08
    {"SIS001影视联盟.gif": 36483, "[email protected]": 204, "第一会所 宣传图.jpg": 173821, "第一会所-综合社区.url": 216, "JamesDeen - Lily Fatale Meets James Deen.mp4": 328379550, "第一会所 宣传 [2012年5月23日更新].txt": 651}
创建时间: 2018-11-20 03:45:39 大小:313.37 MB 文件数量:6 热度:17 最近下载:2025-03-07 22:25:03
    ... 's Rockin'.mp3": 7797940, "femme fatale 1988 - cd.jpg": 368253, "femme ... fatale 1988 - back.jpg": 794136, "femme fatale 1988 - front.jpg": 931681, "femme fatale ... Arms Again.mp3": 10419424, "femme fatale 1988 - inside.jpg": 1089260, "02 ...
创建时间: 2018-11-20 10:22:52 大小:94.41 MB 文件数量:15 热度:8 最近下载:2025-02-03 04:47:03
    {"Femme Fatale (1993) ~ French Classic ~ [RRG]{Brego}.avi": 760182928}
创建时间: 2018-11-20 19:21:36 大小:724.97 MB 文件数量:1 热度:18 最近下载:2025-05-03 10:48:04
    {"0.jpg": 27280, "Torrent downloaded from PornLeech.com.nfo": 46, "TPH-Dylan Ryan and Becca Fatale(34433).mp4": 1109809641, "TPH-Dylan Ryan and Becca Fatale(34433)_idx.jpg": 576515}
创建时间: 2018-11-21 05:38:05 大小:1.03 GB 文件数量:4 热度:22 最近下载:2024-08-11 02:07:03
    {"RARBG.com.txt": 34, "letsfuckoutside.14.09.23.lily.fatale.jizz-b-q.fr.mp4": 551632844, "letsfuckoutside.14.09.23.lily.fatale.jizz-b-q.fr.nfo": 5212}
创建时间: 2018-11-22 04:00:13 大小:526.08 MB 文件数量:3 热度:20 最近下载:2025-08-01 23:23:11
    {"covers": {"nfo.txt": 5592, "cover2.jpg": 511452, "bndfyhtutirtg.jpg": 71700, "bnfghrturtuigh.jpg": 175148, "14102124dsZD332F.jpg": 180282, "nfghrtutruitujhfg.jpg": 96647}, "Moana.L.Excitation.Fatale.1992.DVDRip.avi": 734357504}
创建时间: 2018-11-22 14:51:06 大小:701.33 MB 文件数量:7 热度:27 最近下载:2024-11-05 05:15:01
    ... Digital-Empire).cbr": 180500430, "Fatale v05 - Curse the Demon ( ... (Zone-Empire).cbr": 226597612, "Fatale v03 - West of Hell ( ... Windrider-Empire).cbr": 150332216, "Fatale v04 - Pray For Rain ... (Windrider-Empire).cbr": 215280247, "Fatale v02 - The Devils Business ...
创建时间: 2018-11-22 20:09:16 大小:877.46 MB 文件数量:5 热度:16 最近下载:2025-08-07 13:23:02
    {"08 Hell.mp3": 9058418, "02 Get Up.mp3": 7841403, "04 Caught.mp3": 7488703, "05 Flowers.mp3": 7130337, "01 Soulgate.mp3": 6507470, "06 Is It Me.mp3": 9298481, "03 Quicksand.mp3": 7339632, "11 Bittersweat.mp3": 5819565, "07 Silent Tango.mp3": 6696538, "12 ...
创建时间: 2018-11-23 14:24:41 大小:88.55 MB 文件数量:12 热度:14 最近下载:2025-05-12 04:49:01
    {"Private - Hazel Dew, the femme fatale gets anal.mp4": 449838147}
创建时间: 2018-11-24 00:19:55 大小:429 MB 文件数量:1 热度:25 最近下载:2025-08-01 11:47:11
    ... ": 27711780, "00 Britney Spears - Femme Fatale (Deluxe Edition).m3u": 1175}
创建时间: 2018-11-24 12:23:52 大小:429.07 MB 文件数量:20 热度:10 最近下载:2025-05-13 20:37:01
    {"001.jpg": 268981, "002.jpg": 247895, "003.jpg": 236811, "004.jpg": 231587, "005.jpg": 266353, "006.jpg": 231796, "007.jpg": 238885, "008.jpg": 227202, "009.jpg": 227944, "010.jpg": 254074, "011.jpg": 254940, "012.jpg": 261800, "013.jpg": 238182, "014.jpg ...
创建时间: 2018-11-25 10:42:54 大小:19.69 MB 文件数量:93 热度:12 最近下载:2024-12-29 23:51:03
    {"front.jpg": 248855, "15. Selfish.flac": 49094958, "11. Gasoline.flac": 40316955, "12. Criminal.flac": 49253966, "03. Inside Out.flac": 47365607, "04. I Wanna Go.flac": 45802495, "05. How I Roll.flac": 43562713, "13. Up N' Down.flac": 48007785, "08. Big ...
创建时间: 2018-11-25 15:37:48 大小:724.77 MB 文件数量:17 热度:15 最近下载:2023-12-26 15:49:03
    {"Nice . Naughty.mp3": 57686207, "Nikki-Because 5.mp3": 32902063, "Nikki- Because 1.mp3": 40021824, "Nikki- Because 2.mp3": 132031950, "Nikki- Because 3.mp3": 107515301, "Nikki- Because 4.mp3": 119768192, "Nikki- Because 6.mp3": 105892783, " ...
创建时间: 2018-11-26 16:41:41 大小:588.98 MB 文件数量:8 热度:19 最近下载:2025-08-01 14:27:10